createdAt,value
2022-12-08T00:05:30.071Z,2.10
2022-12-08T00:15:31.927Z,2.10
2022-12-08T00:25:36.235Z,2.00
2022-12-08T00:35:42.938Z,2.00
2022-12-08T00:45:45.160Z,2.00
2022-12-08T00:55:47.064Z,2.00
2022-12-08T01:05:48.836Z,2.00
2022-12-08T01:15:50.729Z,2.00
2022-12-08T01:25:52.653Z,2.00
2022-12-08T01:35:55.309Z,2.00
2022-12-08T01:45:57.256Z,2.00
2022-12-08T01:56:20.729Z,2.00
2022-12-08T02:06:23.007Z,2.00
2022-12-08T02:16:55.929Z,1.90
2022-12-08T02:27:29.950Z,1.90
2022-12-08T02:37:54.843Z,1.90
2022-12-08T02:47:59.028Z,1.80
2022-12-08T02:58:03.628Z,1.80
2022-12-08T03:08:08.021Z,1.70
2022-12-08T03:18:13.938Z,1.60
2022-12-08T03:28:16.263Z,1.60
2022-12-08T03:38:18.578Z,1.60
2022-12-08T03:48:20.453Z,1.50
2022-12-08T03:58:22.529Z,1.50
2022-12-08T04:08:24.440Z,1.50
2022-12-08T04:18:26.309Z,1.60
2022-12-08T04:28:28.262Z,1.70
2022-12-08T04:38:30.526Z,1.70
2022-12-08T04:48:32.404Z,1.80
2022-12-08T04:58:34.593Z,1.80
2022-12-08T05:08:36.620Z,1.80
2022-12-08T05:18:39.102Z,1.80
2022-12-08T05:28:42.654Z,1.80
2022-12-08T05:38:46.427Z,1.80
2022-12-08T05:48:48.200Z,1.90
2022-12-08T05:58:50.375Z,1.90
2022-12-08T06:08:52.334Z,1.70
2022-12-08T06:18:54.533Z,1.70
2022-12-08T06:28:56.402Z,1.70
2022-12-08T06:38:58.293Z,1.60
2022-12-08T06:49:00.020Z,1.70
2022-12-08T06:59:03.231Z,1.70
2022-12-08T07:09:05.131Z,1.80
2022-12-08T07:19:06.998Z,1.80
2022-12-08T07:29:10.110Z,2.10
2022-12-08T07:39:12.126Z,2.20
2022-12-08T07:49:14.102Z,2.30
2022-12-08T07:59:15.997Z,2.40
2022-12-08T08:09:17.775Z,2.60
2022-12-08T08:19:19.817Z,2.80
2022-12-08T08:29:22.049Z,3.00
2022-12-08T08:39:24.370Z,3.10
2022-12-08T08:49:26.453Z,3.20
2022-12-08T08:59:29.009Z,3.40
2022-12-08T09:09:30.822Z,3.50
2022-12-08T09:19:32.705Z,3.60
2022-12-08T09:29:36.448Z,4.60
2022-12-08T09:39:38.409Z,3.60
2022-12-08T09:49:45.676Z,3.60
2022-12-08T09:59:54.891Z,3.70
2022-12-08T10:10:09.853Z,3.90
2022-12-08T10:20:18.730Z,4.00
2022-12-08T10:30:22.252Z,4.00
2022-12-08T10:40:27.797Z,3.90
2022-12-08T10:50:43.626Z,4.00
2022-12-08T11:00:45.595Z,3.80
2022-12-08T11:10:47.878Z,3.80
2022-12-08T11:21:02.213Z,3.70
2022-12-08T11:31:17.476Z,3.70
2022-12-08T11:41:24.187Z,3.60
2022-12-08T11:51:37.837Z,3.40
2022-12-08T12:01:42.637Z,3.00
2022-12-08T12:12:11.773Z,2.90
2022-12-08T12:22:21.866Z,2.90
2022-12-08T12:32:24.736Z,2.80
2022-12-08T12:42:55.269Z,2.70
2022-12-08T12:52:57.057Z,2.80
2022-12-08T13:02:59.769Z,2.80
2022-12-08T13:13:06.318Z,2.70
2022-12-08T13:23:37.286Z,2.60
2022-12-08T13:33:41.158Z,3.40
2022-12-08T13:44:31.008Z,2.70
2022-12-08T14:05:17.982Z,2.50
2022-12-08T14:15:21.616Z,2.50
2022-12-08T14:25:26.273Z,2.60
2022-12-08T14:35:37.026Z,2.60
2022-12-08T14:45:45.048Z,2.60
2022-12-08T14:55:48.712Z,2.40
2022-12-08T15:06:03.511Z,2.80
2022-12-08T15:16:25.336Z,2.70
2022-12-08T15:26:28.323Z,2.50
2022-12-08T15:36:30.127Z,2.50
2022-12-08T15:46:32.216Z,2.40
2022-12-08T15:56:40.876Z,2.40
2022-12-08T16:17:16.772Z,2.40
2022-12-08T16:37:46.364Z,2.20
2022-12-08T16:47:53.703Z,2.30
2022-12-08T16:57:55.822Z,2.10
2022-12-08T17:07:58.824Z,2.10
2022-12-08T17:18:00.766Z,2.20
2022-12-08T17:28:02.641Z,2.20
2022-12-08T17:38:04.515Z,2.10
2022-12-08T17:48:06.547Z,2.30
2022-12-08T17:58:09.106Z,2.40
2022-12-08T18:08:11.415Z,2.40
2022-12-08T18:18:13.287Z,2.40
2022-12-08T18:28:16.639Z,2.40
2022-12-08T18:38:18.517Z,2.50
2022-12-08T18:48:20.311Z,2.40
2022-12-08T18:58:22.206Z,2.30
2022-12-08T19:08:29.709Z,2.40
2022-12-08T19:18:33.054Z,2.40
2022-12-08T19:28:35.792Z,2.30
2022-12-08T19:38:37.790Z,2.40
2022-12-08T19:48:39.771Z,2.30
2022-12-08T19:58:41.614Z,2.40
2022-12-08T20:08:48.967Z,2.40
2022-12-08T20:18:52.392Z,2.50
2022-12-08T20:28:54.254Z,2.50
2022-12-08T20:38:56.562Z,2.50
2022-12-08T20:48:58.512Z,2.40
2022-12-08T20:59:00.451Z,2.50
2022-12-08T21:09:02.395Z,2.40
2022-12-08T21:19:05.337Z,2.40
2022-12-08T21:29:07.449Z,2.50
2022-12-08T21:39:09.368Z,2.50
2022-12-08T21:49:11.400Z,2.40
2022-12-08T21:59:13.489Z,2.40
2022-12-08T22:09:15.695Z,2.40
2022-12-08T22:19:18.044Z,2.40
2022-12-08T22:29:20.046Z,2.40
2022-12-08T22:39:22.387Z,2.40
2022-12-08T22:49:24.962Z,2.40
2022-12-08T22:59:28.761Z,2.50
2022-12-08T23:09:30.714Z,2.50
2022-12-08T23:19:36.006Z,2.50
2022-12-08T23:30:15.593Z,2.50
2022-12-08T23:40:25.152Z,2.40
2022-12-08T23:50:27.325Z,2.40
